AAL429 KFLL-CYYR
Flight info
| Callsign | AAL429 |
|---|---|
| Flight time | N/A |
| Altitude | 37000 |
| Route | FEALX2 ETECK DCT FLRDA DCT SAGGY DCT CLAPY DCT ZJAAY/N0452F390 DCT SIE DCT CYN DCT ENE DCT BGR DCT MIILS DCT ROLKO DCT YYR |
| Aircraft | A20N/M-SDE2E3FGHIRWXY/LB1 |
Departure
| Time | 2026-04-30 19:33 |
|---|---|
| Airport | Fort Lauderdale Hollywood International Airport (KFLL) |
Arrival
| Time | N/A |
|---|---|
| Airport | Goose Bay Airport (CYYR) |
| Time | Latitude | Longitude | Altitude | Speed | Heading |
|---|---|---|---|---|---|
| 2026-04-30 19:09 | 26.06890 | -80.14551 | 21 ft | 0 kts | 22° |
| 2026-04-30 19:23 | 26.06865 | -80.14549 | 23 ft | 0 kts | 290° |
| 2026-04-30 19:24 | 26.06922 | -80.14688 | 22 ft | 15 kts | 310° |
| 2026-04-30 19:25 | 26.07126 | -80.14900 | 25 ft | 0 kts | 316° |
| 2026-04-30 19:26 | 26.07165 | -80.14936 | 24 ft | 10 kts | 330° |
| 2026-04-30 19:26 | 26.07365 | -80.14930 | 25 ft | 15 kts | 356° |
| 2026-04-30 19:26 | 26.07444 | -80.14993 | 25 ft | 14 kts | 315° |
| 2026-04-30 19:27 | 26.07563 | -80.15179 | 20 ft | 17 kts | 273° |
| 2026-04-30 19:27 | 26.07565 | -80.15454 | 20 ft | 19 kts | 270° |
| 2026-04-30 19:28 | 26.07566 | -80.15600 | 21 ft | 19 kts | 270° |
| 2026-04-30 19:28 | 26.07567 | -80.15881 | 26 ft | 17 kts | 270° |
| 2026-04-30 19:29 | 26.07570 | -80.16145 | 28 ft | 17 kts | 270° |
| 2026-04-30 19:29 | 26.07570 | -80.16277 | 29 ft | 17 kts | 271° |
| 2026-04-30 19:30 | 26.07589 | -80.16633 | 26 ft | 0 kts | 317° |
| 2026-04-30 19:31 | 26.07591 | -80.16634 | 26 ft | 2 kts | 330° |
| 2026-04-30 19:32 | 26.07679 | -80.16637 | 29 ft | 20 kts | 31° |
| 2026-04-30 19:32 | 26.07699 | -80.16563 | 26 ft | 11 kts | 98° |
| 2026-04-30 19:32 | 26.07691 | -80.16185 | 28 ft | 93 kts | 90° |
| 2026-04-30 19:32 | 26.07696 | -80.15128 | 142 ft | 166 kts | 88° |
| 2026-04-30 19:33 | 26.07720 | -80.13751 | 793 ft | 186 kts | 90° |
| 2026-04-30 19:33 | 26.07714 | -80.12335 | 1737 ft | 187 kts | 90° |
| 2026-04-30 19:33 | 26.07712 | -80.10793 | 2489 ft | 207 kts | 90° |
| 2026-04-30 19:33 | 26.07723 | -80.09171 | 3350 ft | 210 kts | 89° |
| 2026-04-30 19:34 | 26.07740 | -80.07546 | 4057 ft | 211 kts | 89° |
| 2026-04-30 19:34 | 26.07761 | -80.05928 | 4798 ft | 213 kts | 89° |
| 2026-04-30 19:34 | 26.07809 | -80.02603 | 6299 ft | 217 kts | 89° |
| 2026-04-30 19:35 | 26.07985 | -80.00928 | 7045 ft | 219 kts | 72° |
| 2026-04-30 19:35 | 26.08664 | -79.99411 | 7802 ft | 221 kts | 56° |
| 2026-04-30 19:35 | 26.09555 | -79.97998 | 8554 ft | 224 kts | 53° |
| 2026-04-30 19:35 | 26.10489 | -79.96596 | 9309 ft | 227 kts | 53° |
| 2026-04-30 19:36 | 26.11432 | -79.95182 | 10061 ft | 229 kts | 53° |
| 2026-04-30 19:36 | 26.12385 | -79.93743 | 10814 ft | 232 kts | 53° |
| 2026-04-30 19:36 | 26.14296 | -79.90836 | 12304 ft | 237 kts | 53° |
| 2026-04-30 19:37 | 26.15275 | -79.89342 | 13058 ft | 240 kts | 53° |
| 2026-04-30 19:37 | 26.16262 | -79.87834 | 13804 ft | 242 kts | 53° |
| 2026-04-30 19:37 | 26.17261 | -79.86305 | 14562 ft | 245 kts | 53° |
| 2026-04-30 19:37 | 26.18273 | -79.84755 | 15328 ft | 248 kts | 53° |
| 2026-04-30 19:38 | 26.19281 | -79.83211 | 16059 ft | 251 kts | 53° |
| 2026-04-30 19:38 | 26.20311 | -79.81632 | 16808 ft | 254 kts | 53° |
| 2026-04-30 19:38 | 26.21354 | -79.80033 | 17559 ft | 256 kts | 53° |
| 2026-04-30 19:38 | 26.22405 | -79.78422 | 18312 ft | 258 kts | 53° |
| 2026-04-30 19:39 | 26.23461 | -79.76803 | 19054 ft | 258 kts | 53° |
| 2026-04-30 19:39 | 26.24518 | -79.75180 | 19812 ft | 258 kts | 54° |
| 2026-04-30 19:39 | 26.25572 | -79.73562 | 20565 ft | 257 kts | 54° |
| 2026-04-30 19:39 | 26.26617 | -79.71957 | 21307 ft | 254 kts | 54° |
| 2026-04-30 19:40 | 26.27646 | -79.70376 | 22049 ft | 249 kts | 54° |
| 2026-04-30 19:40 | 26.28637 | -79.68863 | 22781 ft | 240 kts | 52° |
| 2026-04-30 19:40 | 26.29671 | -79.67458 | 23503 ft | 228 kts | 47° |
| 2026-04-30 19:40 | 26.30714 | -79.66214 | 24209 ft | 210 kts | 46° |
| 2026-04-30 19:41 | 26.31713 | -79.65070 | 24639 ft | 207 kts | 45° |
| 2026-04-30 19:41 | 26.32783 | -79.63887 | 24587 ft | 225 kts | 44° |
| 2026-04-30 19:41 | 26.33950 | -79.62593 | 24350 ft | 252 kts | 46° |
| 2026-04-30 19:41 | 26.35174 | -79.61150 | 24772 ft | 237 kts | 47° |
| 2026-04-30 19:42 | 26.36236 | -79.59847 | 25073 ft | 243 kts | 47° |
| 2026-04-30 19:42 | 26.37441 | -79.58380 | 25166 ft | 246 kts | 46° |
| 2026-04-30 19:42 | 26.38542 | -79.57052 | 26018 ft | 231 kts | 47° |
| 2026-04-30 19:42 | 26.39657 | -79.55689 | 26082 ft | 247 kts | 45° |
| 2026-04-30 19:43 | 26.40923 | -79.54279 | 26091 ft | 265 kts | 44° |
| 2026-04-30 19:43 | 26.42270 | -79.52808 | 26252 ft | 278 kts | 44° |
| 2026-04-30 19:43 | 26.43675 | -79.51245 | 26433 ft | 291 kts | 45° |
| 2026-04-30 19:44 | 26.46626 | -79.47891 | 27016 ft | 310 kts | 45° |
| 2026-04-30 19:44 | 26.48142 | -79.46150 | 27454 ft | 314 kts | 45° |
| 2026-04-30 19:44 | 26.49673 | -79.44389 | 27912 ft | 317 kts | 45° |
| 2026-04-30 19:44 | 26.51217 | -79.42608 | 28347 ft | 320 kts | 46° |
| 2026-04-30 19:45 | 26.52774 | -79.40812 | 28769 ft | 323 kts | 46° |
| 2026-04-30 19:45 | 26.54370 | -79.39035 | 29174 ft | 326 kts | 42° |
| 2026-04-30 19:45 | 26.56132 | -79.37430 | 29569 ft | 328 kts | 34° |
| 2026-04-30 19:45 | 26.58051 | -79.36029 | 29951 ft | 331 kts | 31° |
| 2026-04-30 19:46 | 26.60024 | -79.34681 | 30326 ft | 334 kts | 31° |
| 2026-04-30 19:46 | 26.62018 | -79.33333 | 30689 ft | 336 kts | 31° |
| 2026-04-30 19:46 | 26.64000 | -79.31991 | 31036 ft | 339 kts | 31° |
| 2026-04-30 19:46 | 26.66026 | -79.30617 | 31376 ft | 341 kts | 31° |
| 2026-04-30 19:47 | 26.68063 | -79.29233 | 31708 ft | 344 kts | 31° |
| 2026-04-30 19:47 | 26.69447 | -79.28292 | 31920 ft | 345 kts | 31° |
| 2026-04-30 19:47 | 26.71506 | -79.26891 | 32241 ft | 348 kts | 31° |
| 2026-04-30 19:47 | 26.73555 | -79.25495 | 32544 ft | 350 kts | 31° |
| 2026-04-30 19:48 | 26.75645 | -79.24071 | 32846 ft | 352 kts | 31° |
| 2026-04-30 19:48 | 26.77743 | -79.22640 | 33132 ft | 354 kts | 31° |
| 2026-04-30 19:48 | 26.79854 | -79.21200 | 33417 ft | 357 kts | 31° |
| 2026-04-30 19:48 | 26.81979 | -79.19749 | 33694 ft | 359 kts | 31° |
| 2026-04-30 19:49 | 26.84118 | -79.18288 | 33962 ft | 361 kts | 31° |
| 2026-04-30 19:49 | 26.88424 | -79.15346 | 34473 ft | 365 kts | 31° |
| 2026-04-30 19:49 | 26.90596 | -79.13861 | 34717 ft | 367 kts | 31° |
| 2026-04-30 19:50 | 26.92779 | -79.12367 | 34963 ft | 369 kts | 31° |
| 2026-04-30 19:50 | 26.94972 | -79.10867 | 35195 ft | 370 kts | 31° |
| 2026-04-30 19:50 | 26.97152 | -79.09374 | 35426 ft | 372 kts | 31° |
| 2026-04-30 19:50 | 26.99379 | -79.07848 | 35653 ft | 374 kts | 31° |
| 2026-04-30 19:51 | 27.01607 | -79.06321 | 35870 ft | 376 kts | 31° |
| 2026-04-30 19:51 | 27.03843 | -79.04788 | 36085 ft | 378 kts | 31° |
| 2026-04-30 19:51 | 27.06102 | -79.03238 | 36296 ft | 379 kts | 31° |
| 2026-04-30 19:51 | 27.08357 | -79.01690 | 36491 ft | 381 kts | 31° |
| 2026-04-30 19:52 | 27.10626 | -79.00132 | 36681 ft | 383 kts | 31° |
| 2026-04-30 19:52 | 27.12883 | -78.98582 | 36865 ft | 385 kts | 31° |
| 2026-04-30 19:52 | 27.15174 | -78.97007 | 36984 ft | 389 kts | 31° |
| 2026-04-30 19:52 | 27.17506 | -78.95404 | 36994 ft | 396 kts | 31° |
| 2026-04-30 19:53 | 27.22289 | -78.92112 | 36993 ft | 410 kts | 31° |
| 2026-04-30 19:53 | 27.27242 | -78.88700 | 36993 ft | 424 kts | 31° |
| 2026-04-30 19:54 | 27.32356 | -78.85174 | 36993 ft | 438 kts | 31° |
| 2026-04-30 19:54 | 27.37543 | -78.81624 | 36996 ft | 436 kts | 28° |
| 2026-04-30 19:55 | 27.43205 | -78.79331 | 36997 ft | 433 kts | 9° |
| 2026-04-30 19:55 | 27.49178 | -78.78389 | 36995 ft | 433 kts | 7° |
| 2026-04-30 19:56 | 27.55169 | -78.77533 | 36995 ft | 433 kts | 7° |
| 2026-04-30 19:56 | 27.61151 | -78.76665 | 36995 ft | 433 kts | 7° |
| 2026-04-30 19:57 | 27.67130 | -78.75792 | 36995 ft | 433 kts | 7° |
| 2026-04-30 19:57 | 27.73108 | -78.74915 | 36995 ft | 433 kts | 7° |
| 2026-04-30 19:58 | 27.79047 | -78.74043 | 36995 ft | 433 kts | 7° |
| 2026-04-30 19:58 | 27.85024 | -78.73165 | 36995 ft | 433 kts | 7° |
| 2026-04-30 19:59 | 27.91043 | -78.72279 | 36995 ft | 433 kts | 7° |
| 2026-04-30 20:00 | 27.99974 | -78.70963 | 36995 ft | 433 kts | 7° |
| 2026-04-30 20:00 | 28.05961 | -78.70079 | 36995 ft | 433 kts | 7° |
| 2026-04-30 20:01 | 28.14929 | -78.68754 | 36995 ft | 433 kts | 7° |
| 2026-04-30 20:01 | 28.20904 | -78.67869 | 36995 ft | 433 kts | 7° |
| 2026-04-30 20:02 | 28.29835 | -78.66546 | 36995 ft | 433 kts | 7° |
| 2026-04-30 20:03 | 28.38801 | -78.65214 | 36995 ft | 433 kts | 7° |
| 2026-04-30 20:03 | 28.44782 | -78.64325 | 36995 ft | 433 kts | 7° |
| 2026-04-30 20:04 | 28.50770 | -78.63434 | 36995 ft | 433 kts | 7° |
| 2026-04-30 20:05 | 28.59693 | -78.62104 | 36995 ft | 433 kts | 7° |
| 2026-04-30 20:05 | 28.68678 | -78.60762 | 36995 ft | 433 kts | 7° |
| 2026-04-30 20:06 | 28.74622 | -78.59873 | 36995 ft | 433 kts | 7° |
| 2026-04-30 20:06 | 28.80604 | -78.58978 | 36995 ft | 433 kts | 7° |
| 2026-04-30 20:07 | 28.86585 | -78.58082 | 36995 ft | 433 kts | 7° |
| 2026-04-30 20:08 | 28.95550 | -78.56736 | 36995 ft | 433 kts | 7° |
| 2026-04-30 20:08 | 29.01521 | -78.55838 | 36995 ft | 433 kts | 7° |
| 2026-04-30 20:09 | 29.07493 | -78.54940 | 36995 ft | 433 kts | 7° |
| 2026-04-30 20:09 | 29.16410 | -78.53596 | 36995 ft | 433 kts | 7° |
| 2026-04-30 20:10 | 29.25373 | -78.52243 | 36995 ft | 433 kts | 7° |
| 2026-04-30 20:11 | 29.34349 | -78.50885 | 36995 ft | 433 kts | 7° |
| 2026-04-30 20:11 | 29.40313 | -78.49982 | 36995 ft | 433 kts | 7° |
| 2026-04-30 20:12 | 29.49233 | -78.48615 | 36995 ft | 433 kts | 8° |
| 2026-04-30 20:13 | 29.55187 | -78.47542 | 36995 ft | 433 kts | 9° |
| 2026-04-30 20:13 | 29.61128 | -78.46407 | 36995 ft | 433 kts | 9° |
| 2026-04-30 20:14 | 29.67069 | -78.45278 | 36995 ft | 433 kts | 9° |
| 2026-04-30 20:14 | 29.73018 | -78.44158 | 36995 ft | 433 kts | 9° |
| 2026-04-30 20:15 | 29.78925 | -78.43051 | 36995 ft | 433 kts | 9° |
| 2026-04-30 20:15 | 29.84908 | -78.41929 | 36995 ft | 433 kts | 9° |
| 2026-04-30 20:16 | 29.90819 | -78.40818 | 36995 ft | 433 kts | 9° |
| 2026-04-30 20:16 | 29.96757 | -78.39701 | 36995 ft | 433 kts | 9° |
| 2026-04-30 20:17 | 30.02702 | -78.38580 | 36995 ft | 432 kts | 9° |
| 2026-04-30 20:17 | 30.08658 | -78.37457 | 36995 ft | 432 kts | 9° |
| 2026-04-30 20:18 | 30.14600 | -78.36335 | 36995 ft | 432 kts | 9° |
| 2026-04-30 20:18 | 30.20537 | -78.35212 | 36995 ft | 432 kts | 9° |
| 2026-04-30 20:19 | 30.26444 | -78.34093 | 36995 ft | 432 kts | 9° |
| 2026-04-30 20:19 | 30.32389 | -78.32966 | 36995 ft | 432 kts | 9° |
| 2026-04-30 20:20 | 30.38338 | -78.31837 | 36995 ft | 432 kts | 9° |
| 2026-04-30 20:20 | 30.44240 | -78.30716 | 36995 ft | 432 kts | 9° |
| 2026-04-30 20:21 | 30.50189 | -78.29584 | 36995 ft | 432 kts | 9° |
| 2026-04-30 20:21 | 30.56141 | -78.28450 | 36995 ft | 432 kts | 9° |
| 2026-04-30 20:22 | 30.62045 | -78.27324 | 36995 ft | 432 kts | 9° |
| 2026-04-30 20:22 | 30.67987 | -78.26189 | 36995 ft | 432 kts | 9° |
| 2026-04-30 20:23 | 30.73922 | -78.25054 | 36995 ft | 432 kts | 9° |
| 2026-04-30 20:23 | 30.79856 | -78.23918 | 36995 ft | 432 kts | 9° |
| 2026-04-30 20:24 | 30.85791 | -78.22781 | 36995 ft | 432 kts | 9° |
| 2026-04-30 20:24 | 30.91728 | -78.21641 | 36995 ft | 432 kts | 9° |
| 2026-04-30 20:25 | 31.00597 | -78.19936 | 36995 ft | 432 kts | 9° |
| 2026-04-30 20:26 | 31.09498 | -78.18222 | 36995 ft | 432 kts | 9° |
| 2026-04-30 20:26 | 31.18407 | -78.16503 | 36995 ft | 432 kts | 9° |
| 2026-04-30 20:27 | 31.30276 | -78.14208 | 36995 ft | 432 kts | 9° |
| 2026-04-30 20:28 | 31.42122 | -78.11912 | 36995 ft | 432 kts | 9° |
| 2026-04-30 20:30 | 31.56977 | -78.09347 | 36995 ft | 432 kts | 8° |
| 2026-04-30 20:31 | 31.74787 | -78.06308 | 36995 ft | 432 kts | 8° |
| 2026-04-30 20:32 | 31.89673 | -78.03748 | 36995 ft | 432 kts | 8° |
| 2026-04-30 20:33 | 31.98596 | -78.02211 | 36995 ft | 432 kts | 8° |
| 2026-04-30 20:34 | 32.07480 | -78.00676 | 36995 ft | 432 kts | 8° |
| 2026-04-30 20:35 | 32.16398 | -77.99133 | 36995 ft | 432 kts | 8° |
| 2026-04-30 20:35 | 32.24320 | -77.97760 | 36995 ft | 432 kts | 8° |
| 2026-04-30 20:36 | 32.30265 | -77.96728 | 36995 ft | 432 kts | 8° |
| 2026-04-30 20:37 | 32.39180 | -77.95178 | 36995 ft | 432 kts | 8° |
| 2026-04-30 20:37 | 32.45132 | -77.94141 | 36995 ft | 432 kts | 8° |
| 2026-04-30 20:38 | 32.51075 | -77.93104 | 36995 ft | 432 kts | 8° |
| 2026-04-30 20:38 | 32.57013 | -77.92067 | 36995 ft | 432 kts | 8° |
| 2026-04-30 20:39 | 32.65937 | -77.90506 | 36995 ft | 432 kts | 8° |
| 2026-04-30 20:40 | 32.74817 | -77.88949 | 36995 ft | 431 kts | 8° |
| 2026-04-30 20:40 | 32.80757 | -77.87906 | 36995 ft | 431 kts | 8° |
| 2026-04-30 20:41 | 32.89669 | -77.86339 | 36995 ft | 431 kts | 8° |
| 2026-04-30 20:41 | 32.95614 | -77.85291 | 36995 ft | 431 kts | 8° |
| 2026-04-30 20:42 | 33.01549 | -77.84244 | 36995 ft | 431 kts | 8° |
| 2026-04-30 20:43 | 33.10469 | -77.82668 | 36995 ft | 431 kts | 8° |
| 2026-04-30 20:43 | 33.16374 | -77.81622 | 36995 ft | 431 kts | 8° |
| 2026-04-30 20:44 | 33.25285 | -77.80042 | 36995 ft | 431 kts | 8° |
| 2026-04-30 20:45 | 33.37170 | -77.77929 | 36995 ft | 431 kts | 8° |
| 2026-04-30 20:45 | 33.43107 | -77.76872 | 36995 ft | 431 kts | 8° |
| 2026-04-30 20:46 | 33.54979 | -77.74753 | 36995 ft | 431 kts | 8° |
| 2026-04-30 20:47 | 33.63853 | -77.73165 | 36995 ft | 431 kts | 8° |
| 2026-04-30 20:48 | 33.72590 | -77.70629 | 36995 ft | 431 kts | 18° |
| 2026-04-30 20:48 | 33.78248 | -77.68322 | 36995 ft | 431 kts | 19° |
| 2026-04-30 20:49 | 33.83923 | -77.65930 | 36995 ft | 431 kts | 19° |
| 2026-04-30 20:50 | 33.92429 | -77.62349 | 36995 ft | 431 kts | 19° |
| 2026-04-30 20:50 | 33.98107 | -77.59970 | 36995 ft | 431 kts | 19° |
| 2026-04-30 20:51 | 34.03780 | -77.57593 | 36995 ft | 431 kts | 19° |
| 2026-04-30 20:51 | 34.12255 | -77.54034 | 36995 ft | 431 kts | 19° |
| 2026-04-30 20:52 | 34.17922 | -77.51650 | 36995 ft | 431 kts | 19° |
| 2026-04-30 20:53 | 34.26427 | -77.48065 | 36995 ft | 431 kts | 19° |
| 2026-04-30 20:53 | 34.32097 | -77.45671 | 36995 ft | 431 kts | 19° |
| 2026-04-30 20:54 | 34.40599 | -77.42075 | 36995 ft | 431 kts | 19° |
| 2026-04-30 20:55 | 34.49075 | -77.38482 | 36995 ft | 431 kts | 19° |
| 2026-04-30 20:55 | 34.54749 | -77.36073 | 36995 ft | 431 kts | 19° |
| 2026-04-30 20:56 | 34.63247 | -77.32457 | 36995 ft | 431 kts | 19° |
| 2026-04-30 20:57 | 34.71741 | -77.28836 | 36995 ft | 431 kts | 19° |
| 2026-04-30 20:57 | 34.77373 | -77.26430 | 36995 ft | 431 kts | 19° |
| 2026-04-30 20:58 | 34.85870 | -77.22794 | 36995 ft | 431 kts | 19° |
| 2026-04-30 20:58 | 34.91533 | -77.20366 | 36995 ft | 431 kts | 19° |
| 2026-04-30 20:59 | 35.00003 | -77.16729 | 36995 ft | 431 kts | 19° |
| 2026-04-30 21:00 | 35.11322 | -77.11855 | 36995 ft | 431 kts | 19° |
| 2026-04-30 21:01 | 35.19805 | -77.08193 | 36995 ft | 431 kts | 19° |
| 2026-04-30 21:02 | 35.28251 | -77.04538 | 36995 ft | 431 kts | 19° |
| 2026-04-30 21:02 | 35.33907 | -77.02087 | 36995 ft | 431 kts | 19° |
| 2026-04-30 21:03 | 35.39566 | -76.99630 | 36995 ft | 431 kts | 19° |
| 2026-04-30 21:03 | 35.45224 | -76.97171 | 36995 ft | 431 kts | 19° |
| 2026-04-30 21:04 | 35.50876 | -76.94710 | 36995 ft | 431 kts | 19° |
| 2026-04-30 21:04 | 35.59324 | -76.90939 | 36994 ft | 431 kts | 23° |
| 2026-04-30 21:05 | 35.64765 | -76.87928 | 36995 ft | 431 kts | 24° |
| 2026-04-30 21:05 | 35.70201 | -76.84799 | 36995 ft | 431 kts | 25° |
| 2026-04-30 21:06 | 35.75634 | -76.81643 | 36995 ft | 431 kts | 25° |
| 2026-04-30 21:06 | 35.81057 | -76.78494 | 36995 ft | 431 kts | 25° |
| 2026-04-30 21:07 | 35.86493 | -76.75340 | 36995 ft | 431 kts | 25° |
| 2026-04-30 21:07 | 35.91916 | -76.72191 | 36995 ft | 431 kts | 25° |
| 2026-04-30 21:08 | 35.97319 | -76.69049 | 36995 ft | 431 kts | 25° |
| 2026-04-30 21:08 | 36.02746 | -76.65888 | 36995 ft | 431 kts | 25° |
| 2026-04-30 21:09 | 36.08169 | -76.62724 | 36995 ft | 431 kts | 25° |
| 2026-04-30 21:09 | 36.13597 | -76.59553 | 36995 ft | 431 kts | 25° |
| 2026-04-30 21:10 | 36.19021 | -76.56379 | 36995 ft | 431 kts | 25° |
| 2026-04-30 21:10 | 36.24437 | -76.53205 | 36995 ft | 431 kts | 25° |
| 2026-04-30 21:11 | 36.29823 | -76.50044 | 36995 ft | 431 kts | 25° |
| 2026-04-30 21:11 | 36.35244 | -76.46857 | 36995 ft | 431 kts | 25° |
| 2026-04-30 21:12 | 36.40656 | -76.43671 | 36995 ft | 431 kts | 25° |
| 2026-04-30 21:12 | 36.46076 | -76.40475 | 36995 ft | 431 kts | 25° |
| 2026-04-30 21:13 | 36.51495 | -76.37274 | 36995 ft | 431 kts | 25° |
| 2026-04-30 21:13 | 36.56907 | -76.34072 | 36995 ft | 431 kts | 25° |
| 2026-04-30 21:14 | 36.62317 | -76.30867 | 36995 ft | 431 kts | 25° |
| 2026-04-30 21:14 | 36.67730 | -76.27655 | 36995 ft | 431 kts | 25° |
| 2026-04-30 21:15 | 36.73109 | -76.24459 | 36995 ft | 431 kts | 25° |
| 2026-04-30 21:15 | 36.78522 | -76.21236 | 36995 ft | 431 kts | 25° |
| 2026-04-30 21:16 | 36.83938 | -76.18007 | 36995 ft | 431 kts | 25° |
| 2026-04-30 21:16 | 36.89350 | -76.14776 | 36995 ft | 431 kts | 25° |
| 2026-04-30 21:17 | 36.94729 | -76.11559 | 36995 ft | 430 kts | 25° |
| 2026-04-30 21:17 | 37.00134 | -76.08321 | 36995 ft | 430 kts | 25° |
| 2026-04-30 21:18 | 37.05547 | -76.05074 | 36995 ft | 430 kts | 25° |
| 2026-04-30 21:18 | 37.10946 | -76.01829 | 36995 ft | 430 kts | 25° |
| 2026-04-30 21:19 | 37.16312 | -75.98599 | 36995 ft | 430 kts | 25° |
| 2026-04-30 21:19 | 37.21704 | -75.95349 | 36995 ft | 430 kts | 25° |
| 2026-04-30 21:20 | 37.27107 | -75.92087 | 36995 ft | 430 kts | 25° |
| 2026-04-30 21:20 | 37.32512 | -75.88818 | 36995 ft | 430 kts | 25° |
| 2026-04-30 21:21 | 37.37905 | -75.85552 | 36995 ft | 430 kts | 25° |
| 2026-04-30 21:22 | 37.45096 | -75.81188 | 36995 ft | 430 kts | 25° |
| 2026-04-30 21:23 | 37.55882 | -75.74624 | 36995 ft | 430 kts | 25° |
| 2026-04-30 21:23 | 37.63976 | -75.69685 | 36995 ft | 430 kts | 25° |
| 2026-04-30 21:24 | 37.69330 | -75.66412 | 36995 ft | 430 kts | 25° |
| 2026-04-30 21:24 | 37.74720 | -75.63111 | 36995 ft | 430 kts | 25° |
| 2026-04-30 21:25 | 37.82804 | -75.58150 | 36995 ft | 430 kts | 26° |
| 2026-04-30 21:26 | 37.90883 | -75.53180 | 36995 ft | 430 kts | 26° |
| 2026-04-30 21:27 | 37.98958 | -75.48200 | 36995 ft | 430 kts | 26° |
| 2026-04-30 21:27 | 38.04307 | -75.44895 | 36995 ft | 430 kts | 26° |
| 2026-04-30 21:28 | 38.12403 | -75.39955 | 36995 ft | 430 kts | 25° |
| 2026-04-30 21:29 | 38.20510 | -75.35035 | 36995 ft | 430 kts | 25° |
| 2026-04-30 21:30 | 38.34009 | -75.26797 | 36995 ft | 430 kts | 25° |
| 2026-04-30 21:31 | 38.47456 | -75.18555 | 36995 ft | 430 kts | 25° |
| 2026-04-30 21:32 | 38.55547 | -75.13579 | 36995 ft | 430 kts | 25° |
| 2026-04-30 21:32 | 38.60936 | -75.10258 | 36995 ft | 430 kts | 25° |
| 2026-04-30 21:33 | 38.69021 | -75.05265 | 36995 ft | 430 kts | 25° |
| 2026-04-30 21:34 | 38.74410 | -75.01930 | 36995 ft | 430 kts | 25° |
| 2026-04-30 21:34 | 38.82451 | -74.96943 | 36995 ft | 430 kts | 25° |
| 2026-04-30 21:35 | 38.87831 | -74.93600 | 36995 ft | 430 kts | 25° |
| 2026-04-30 21:35 | 38.93220 | -74.90245 | 36995 ft | 430 kts | 25° |
| 2026-04-30 21:36 | 38.98604 | -74.86888 | 36995 ft | 430 kts | 26° |
| 2026-04-30 21:37 | 39.09372 | -74.80172 | 36994 ft | 430 kts | 24° |
| 2026-04-30 21:37 | 39.14858 | -74.77209 | 36995 ft | 429 kts | 21° |
| 2026-04-30 21:38 | 39.20438 | -74.74451 | 36995 ft | 429 kts | 20° |
| 2026-04-30 21:38 | 39.26025 | -74.71682 | 36995 ft | 429 kts | 21° |
| 2026-04-30 21:39 | 39.31588 | -74.68877 | 36995 ft | 429 kts | 21° |
| 2026-04-30 21:39 | 39.37153 | -74.66045 | 36995 ft | 429 kts | 21° |
| 2026-04-30 21:40 | 39.42715 | -74.63206 | 36995 ft | 429 kts | 21° |
| 2026-04-30 21:40 | 39.48246 | -74.60379 | 36995 ft | 429 kts | 21° |
| 2026-04-30 21:41 | 39.53808 | -74.57533 | 36995 ft | 429 kts | 21° |
| 2026-04-30 21:41 | 39.59370 | -74.54682 | 36995 ft | 429 kts | 21° |
| 2026-04-30 21:42 | 39.64931 | -74.51827 | 36995 ft | 429 kts | 21° |
| 2026-04-30 21:42 | 39.70490 | -74.48968 | 36995 ft | 429 kts | 21° |
| 2026-04-30 21:43 | 39.76011 | -74.46124 | 36995 ft | 429 kts | 21° |
| 2026-04-30 21:43 | 39.81484 | -74.43003 | 36995 ft | 430 kts | 30° |
| 2026-04-30 21:44 | 39.86418 | -74.38611 | 36995 ft | 430 kts | 36° |
| 2026-04-30 21:44 | 39.91194 | -74.33934 | 36995 ft | 430 kts | 37° |
| 2026-04-30 21:45 | 39.95948 | -74.29183 | 36995 ft | 430 kts | 37° |
| 2026-04-30 21:45 | 40.00704 | -74.24441 | 36995 ft | 430 kts | 37° |
| 2026-04-30 21:46 | 40.05462 | -74.19713 | 36995 ft | 430 kts | 37° |
| 2026-04-30 21:46 | 40.10222 | -74.14982 | 36995 ft | 430 kts | 37° |
| 2026-04-30 21:47 | 40.14979 | -74.10246 | 36995 ft | 430 kts | 37° |
| 2026-04-30 21:47 | 40.19733 | -74.05505 | 36995 ft | 430 kts | 37° |
| 2026-04-30 21:48 | 40.24456 | -74.00785 | 36995 ft | 430 kts | 37° |
| 2026-04-30 21:48 | 40.29206 | -73.96029 | 36995 ft | 430 kts | 37° |
| 2026-04-30 21:49 | 40.33951 | -73.91270 | 36995 ft | 429 kts | 37° |
| 2026-04-30 21:49 | 40.38698 | -73.86499 | 36995 ft | 429 kts | 37° |
| 2026-04-30 21:50 | 40.43441 | -73.81725 | 36995 ft | 429 kts | 37° |
| 2026-04-30 21:50 | 40.48184 | -73.76941 | 36995 ft | 429 kts | 37° |
| 2026-04-30 21:51 | 40.52920 | -73.72156 | 36995 ft | 429 kts | 37° |
| 2026-04-30 21:51 | 40.57627 | -73.67391 | 36995 ft | 429 kts | 37° |
| 2026-04-30 21:52 | 40.62357 | -73.62594 | 36995 ft | 429 kts | 37° |
| 2026-04-30 21:52 | 40.67090 | -73.57787 | 36995 ft | 429 kts | 37° |
| 2026-04-30 21:53 | 40.71829 | -73.52963 | 36995 ft | 429 kts | 37° |
| 2026-04-30 21:53 | 40.76557 | -73.48142 | 36995 ft | 429 kts | 37° |
| 2026-04-30 21:54 | 40.81256 | -73.43341 | 36995 ft | 430 kts | 37° |
| 2026-04-30 21:54 | 40.85982 | -73.38505 | 36995 ft | 430 kts | 37° |
| 2026-04-30 21:55 | 40.90708 | -73.33658 | 36995 ft | 430 kts | 38° |
| 2026-04-30 21:55 | 40.95430 | -73.28808 | 36995 ft | 429 kts | 38° |
| 2026-04-30 21:56 | 41.00147 | -73.23953 | 36995 ft | 429 kts | 38° |
| 2026-04-30 21:56 | 41.04859 | -73.19095 | 36995 ft | 429 kts | 38° |
| 2026-04-30 21:57 | 41.09569 | -73.14229 | 36995 ft | 429 kts | 38° |
| 2026-04-30 21:57 | 41.14275 | -73.09358 | 36995 ft | 429 kts | 38° |
| 2026-04-30 21:58 | 41.18959 | -73.04502 | 36995 ft | 429 kts | 38° |
| 2026-04-30 21:58 | 41.23668 | -72.99609 | 36995 ft | 429 kts | 38° |
| 2026-04-30 21:59 | 41.28370 | -72.94715 | 36995 ft | 429 kts | 38° |
| 2026-04-30 22:00 | 41.35423 | -72.87358 | 36995 ft | 429 kts | 38° |
| 2026-04-30 22:00 | 41.42465 | -72.79990 | 36995 ft | 429 kts | 38° |
| 2026-04-30 22:01 | 41.47165 | -72.75062 | 36995 ft | 429 kts | 38° |
| 2026-04-30 22:01 | 41.51834 | -72.70156 | 36995 ft | 430 kts | 38° |
| 2026-04-30 22:02 | 41.56529 | -72.65214 | 36995 ft | 429 kts | 38° |
| 2026-04-30 22:02 | 41.61219 | -72.60267 | 36995 ft | 429 kts | 38° |
| 2026-04-30 22:03 | 41.65910 | -72.55311 | 36995 ft | 430 kts | 38° |
| 2026-04-30 22:03 | 41.70601 | -72.50345 | 36995 ft | 430 kts | 38° |
| 2026-04-30 22:04 | 41.75264 | -72.45398 | 36995 ft | 430 kts | 38° |
| 2026-04-30 22:05 | 41.82297 | -72.37921 | 36995 ft | 430 kts | 38° |
| 2026-04-30 22:05 | 41.86987 | -72.32921 | 36995 ft | 430 kts | 38° |
| 2026-04-30 22:06 | 41.91675 | -72.27915 | 36995 ft | 430 kts | 38° |
| 2026-04-30 22:06 | 41.98670 | -72.20427 | 36995 ft | 430 kts | 38° |
| 2026-04-30 22:07 | 42.03358 | -72.15397 | 36995 ft | 431 kts | 38° |
| 2026-04-30 22:07 | 42.07253 | -72.11210 | 36995 ft | 430 kts | 38° |
| 2026-04-30 22:08 | 42.11931 | -72.06172 | 36995 ft | 430 kts | 38° |
| 2026-04-30 22:08 | 42.16602 | -72.01132 | 36995 ft | 430 kts | 38° |
| 2026-04-30 22:09 | 42.21270 | -71.96086 | 36995 ft | 430 kts | 38° |
| 2026-04-30 22:09 | 42.25945 | -71.91021 | 36995 ft | 430 kts | 38° |
| 2026-04-30 22:10 | 42.30617 | -71.85951 | 36995 ft | 431 kts | 38° |
| 2026-04-30 22:10 | 42.35256 | -71.80906 | 36995 ft | 430 kts | 38° |
| 2026-04-30 22:11 | 42.42243 | -71.73289 | 36995 ft | 430 kts | 39° |
| 2026-04-30 22:12 | 42.46903 | -71.68197 | 36995 ft | 429 kts | 39° |
| 2026-04-30 22:12 | 42.51550 | -71.63109 | 36995 ft | 429 kts | 39° |
| 2026-04-30 22:13 | 42.56162 | -71.58048 | 36995 ft | 429 kts | 39° |
| 2026-04-30 22:13 | 42.60839 | -71.52907 | 36993 ft | 439 kts | 39° |
| 2026-04-30 22:14 | 42.65686 | -71.47570 | 36992 ft | 457 kts | 39° |
| 2026-04-30 22:14 | 42.70653 | -71.42087 | 36994 ft | 464 kts | 39° |
| 2026-04-30 22:15 | 42.75663 | -71.36545 | 36995 ft | 464 kts | 39° |
| 2026-04-30 22:15 | 42.80661 | -71.31005 | 36995 ft | 464 kts | 39° |
| 2026-04-30 22:16 | 42.85668 | -71.25441 | 36995 ft | 463 kts | 39° |
| 2026-04-30 22:17 | 42.95633 | -71.14335 | 36995 ft | 463 kts | 39° |
| 2026-04-30 22:17 | 43.03119 | -71.05960 | 36995 ft | 463 kts | 39° |
| 2026-04-30 22:18 | 43.10596 | -70.97567 | 36995 ft | 463 kts | 39° |
| 2026-04-30 22:19 | 43.18067 | -70.89154 | 36995 ft | 463 kts | 39° |
| 2026-04-30 22:20 | 43.25496 | -70.80761 | 36995 ft | 463 kts | 39° |
| 2026-04-30 22:20 | 43.32954 | -70.72308 | 36995 ft | 463 kts | 39° |
| 2026-04-30 22:21 | 43.37928 | -70.66654 | 36995 ft | 463 kts | 39° |
| 2026-04-30 22:21 | 43.42889 | -70.60992 | 36995 ft | 463 kts | 40° |
| 2026-04-30 22:22 | 43.47783 | -70.55221 | 36995 ft | 463 kts | 40° |
| 2026-04-30 22:22 | 43.52644 | -70.49395 | 36995 ft | 463 kts | 41° |
| 2026-04-30 22:23 | 43.57509 | -70.43558 | 36995 ft | 463 kts | 41° |
| 2026-04-30 22:23 | 43.62346 | -70.37757 | 36995 ft | 463 kts | 41° |
| 2026-04-30 22:24 | 43.67221 | -70.31904 | 36995 ft | 463 kts | 41° |
| 2026-04-30 22:24 | 43.72087 | -70.26050 | 36995 ft | 463 kts | 41° |
| 2026-04-30 22:25 | 43.76917 | -70.20227 | 36995 ft | 463 kts | 41° |
| 2026-04-30 22:25 | 43.81779 | -70.14351 | 36995 ft | 463 kts | 41° |
| 2026-04-30 22:26 | 43.89064 | -70.05521 | 36995 ft | 463 kts | 41° |
| 2026-04-30 22:27 | 43.93880 | -69.99668 | 36995 ft | 463 kts | 41° |
| 2026-04-30 22:27 | 44.01149 | -69.90809 | 36995 ft | 463 kts | 41° |
| 2026-04-30 22:28 | 44.08414 | -69.81923 | 36995 ft | 463 kts | 41° |
| 2026-04-30 22:29 | 44.18078 | -69.70058 | 36995 ft | 463 kts | 41° |
| 2026-04-30 22:31 | 44.34952 | -69.49209 | 36995 ft | 464 kts | 41° |
| 2026-04-30 22:32 | 44.47020 | -69.34196 | 36995 ft | 464 kts | 41° |
| 2026-04-30 22:33 | 44.59043 | -69.19152 | 36995 ft | 464 kts | 41° |
| 2026-04-30 22:35 | 44.71036 | -69.04058 | 36995 ft | 464 kts | 41° |
| 2026-04-30 22:36 | 44.83047 | -68.88897 | 36993 ft | 463 kts | 39° |
| 2026-04-30 22:37 | 44.93851 | -68.79001 | 36995 ft | 463 kts | 31° |
| 2026-04-30 22:38 | 45.04856 | -68.69539 | 36995 ft | 463 kts | 31° |
| 2026-04-30 22:39 | 45.13063 | -68.62415 | 36995 ft | 463 kts | 31° |
| 2026-04-30 22:40 | 45.29531 | -68.48022 | 36995 ft | 463 kts | 31° |
| 2026-04-30 22:41 | 45.43220 | -68.35986 | 36995 ft | 463 kts | 31° |
| 2026-04-30 22:43 | 45.59634 | -68.21462 | 36995 ft | 463 kts | 32° |
| 2026-04-30 22:44 | 45.70600 | -68.11702 | 36995 ft | 464 kts | 32° |
| 2026-04-30 22:45 | 45.86987 | -67.97032 | 36995 ft | 464 kts | 32° |
| 2026-04-30 22:47 | 46.03381 | -67.82251 | 36995 ft | 464 kts | 32° |
| 2026-04-30 22:48 | 46.14317 | -67.72332 | 36995 ft | 464 kts | 32° |
| 2026-04-30 22:49 | 46.30658 | -67.57424 | 36995 ft | 464 kts | 32° |
| 2026-04-30 22:51 | 46.47006 | -67.42401 | 36995 ft | 464 kts | 32° |
| 2026-04-30 22:52 | 46.55149 | -67.34878 | 36994 ft | 465 kts | 32° |
| 2026-04-30 22:53 | 46.66067 | -67.24748 | 36995 ft | 465 kts | 32° |
| 2026-04-30 22:53 | 46.74224 | -67.17148 | 36995 ft | 465 kts | 32° |
| 2026-04-30 22:55 | 46.87864 | -67.04380 | 36995 ft | 465 kts | 32° |
| 2026-04-30 22:56 | 46.98801 | -66.94183 | 36995 ft | 466 kts | 32° |
| 2026-04-30 22:57 | 47.12418 | -66.81427 | 36995 ft | 466 kts | 32° |
| 2026-04-30 22:58 | 47.22427 | -66.71997 | 36995 ft | 467 kts | 32° |
| 2026-04-30 22:59 | 47.38821 | -66.56456 | 36996 ft | 466 kts | 32° |